Time;durP1;ratioP1;P1;durP2;ratioP2;P2;SDS_P1;SDS_P2;PMS_P1;PMS_P2;Temp;Humidity;BMP_temperature;BMP_pressure;BME280_temperature;BME280_humidity;BME280_pressure;Samples;Min_cycle;Max_cycle;Signal;HPM_P1;HPM_P2
2022/01/12 00:01:19;;;;;;;102.93;44.78;;;3.70;99.90;;;;;;5089120;28;20043;-77
2022/01/12 00:03:45;;;;;;;104.03;42.60;;;3.80;99.90;;;;;;5090560;28;20394;-79
2022/01/12 00:06:12;;;;;;;118.63;46.78;;;3.80;99.90;;;;;;5072111;28;20506;-79
2022/01/12 00:08:38;;;;;;;103.80;43.17;;;3.70;99.90;;;;;;5089870;28;20044;-77
2022/01/12 00:11:06;;;;;;;105.50;42.40;;;3.80;99.90;;;;;;5090454;28;20127;-78
2022/01/12 00:13:32;;;;;;;143.05;46.22;;;3.80;99.90;;;;;;5089595;28;20531;-77
2022/01/12 00:15:58;;;;;;;118.97;43.20;;;3.90;99.90;;;;;;5089909;28;20039;-78
2022/01/12 00:18:24;;;;;;;121.65;46.15;;;3.70;99.90;;;;;;5089032;28;20377;-78
2022/01/12 00:20:50;;;;;;;168.10;49.13;;;3.80;99.90;;;;;;5089812;28;20040;-78
2022/01/12 00:23:18;;;;;;;105.78;41.40;;;3.70;99.90;;;;;;5071133;28;20036;-78
2022/01/12 00:25:58;;;;;;;129.98;45.40;;;3.80;99.90;;;;;;5089841;28;20044;-72
2022/01/12 00:33:54;;;;;;;112.50;43.55;;;3.80;99.90;;;;;;5089590;28;20127;-79
2022/01/12 00:36:21;;;;;;;147.85;43.70;;;3.80;99.90;;;;;;5089332;28;20648;-78
2022/01/12 00:38:47;;;;;;;133.40;46.58;;;3.80;99.90;;;;;;5089603;28;20040;-78
2022/01/12 00:41:18;;;;;;;134.90;44.28;;;3.80;99.90;;;;;;5089787;28;20127;-77
2022/01/12 00:43:47;;;;;;;140.93;44.85;;;3.80;99.90;;;;;;5089251;28;20101;-75
2022/01/12 00:46:14;;;;;;;139.00;45.93;;;3.90;99.90;;;;;;5088676;28;20135;-77
2022/01/12 00:48:40;;;;;;;124.45;42.70;;;3.80;99.90;;;;;;5089331;28;20032;-77
2022/01/12 00:51:06;;;;;;;150.30;45.03;;;3.80;99.90;;;;;;5089178;28;20040;-78
2022/01/12 00:53:31;;;;;;;110.05;43.45;;;3.80;99.90;;;;;;5088818;28;20043;-77
2022/01/12 00:55:57;;;;;;;182.38;44.95;;;3.80;99.90;;;;;;5089200;28;20336;-78
2022/01/12 00:58:23;;;;;;;134.35;42.75;;;3.80;99.90;;;;;;5087905;28;20044;-77
2022/01/12 01:00:48;;;;;;;168.50;46.03;;;3.90;99.90;;;;;;5071084;28;20094;-78
2022/01/12 01:03:15;;;;;;;178.93;47.65;;;3.90;99.90;;;;;;5070096;28;20048;-78
2022/01/12 01:05:41;;;;;;;266.65;53.42;;;3.90;99.90;;;;;;5089041;28;20040;-78
2022/01/12 01:08:07;;;;;;;173.45;48.30;;;3.80;99.90;;;;;;5088830;28;20123;-79
2022/01/12 01:10:46;;;;;;;171.05;46.30;;;3.90;99.90;;;;;;5088730;28;20097;-77
2022/01/12 01:13:23;;;;;;;180.57;49.87;;;3.90;99.90;;;;;;5071155;28;20271;-78
2022/01/12 01:26:31;;;;;;;235.70;47.47;;;3.90;99.90;;;;;;5088171;28;20055;-79
2022/01/12 01:28:57;;;;;;;302.75;54.30;;;3.90;99.90;;;;;;5088117;28;20040;-78
2022/01/12 01:31:30;;;;;;;362.00;57.85;;;3.90;99.90;;;;;;5087161;28;20479;-79
2022/01/12 01:33:59;;;;;;;284.38;54.33;;;3.90;99.90;;;;;;5088609;28;20417;-78
2022/01/12 01:36:28;;;;;;;359.70;57.92;;;3.90;99.90;;;;;;5053610;28;20071;-78
2022/01/12 01:38:53;;;;;;;252.80;51.08;;;3.90;99.90;;;;;;5088424;28;20044;-79
2022/01/12 01:41:22;;;;;;;439.52;61.72;;;4.00;99.90;;;;;;5087980;28;20113;-77
2022/01/12 01:54:50;;;;;;;203.02;48.55;;;4.00;99.90;;;;;;5069622;28;20052;-79
2022/01/12 01:57:16;;;;;;;286.25;56.80;;;4.00;99.90;;;;;;5087886;28;20036;-78
2022/01/12 01:59:42;;;;;;;145.55;48.08;;;4.10;99.90;;;;;;5069878;28;20496;-78
2022/01/12 02:02:07;;;;;;;151.77;47.47;;;4.00;99.90;;;;;;5086848;28;20085;-77
2022/01/12 02:04:33;;;;;;;166.00;49.25;;;4.00;99.90;;;;;;5087889;28;20387;-76
2022/01/12 02:06:59;;;;;;;148.90;45.95;;;4.10;99.90;;;;;;5087783;28;20497;-79
2022/01/12 02:09:25;;;;;;;116.65;40.63;;;4.10;99.90;;;;;;5087158;28;20055;-78
2022/01/12 02:11:52;;;;;;;172.57;45.78;;;4.10;99.90;;;;;;5069495;28;20036;-76
2022/01/12 02:14:19;;;;;;;117.28;43.80;;;4.10;99.90;;;;;;5087562;28;20075;-77
2022/01/12 02:17:09;;;;;;;125.25;44.83;;;4.20;99.90;;;;;;5086678;28;20051;-78
2022/01/12 02:20:06;;;;;;;115.15;42.55;;;4.20;99.90;;;;;;5087410;28;20059;-77
2022/01/12 02:36:23;;;;;;;121.13;41.38;;;4.00;99.90;;;;;;5087234;28;20048;-79
2022/01/12 02:41:33;;;;;;;109.30;38.92;;;4.00;99.90;;;;;;5087594;28;20044;-78
2022/01/12 02:54:52;;;;;;;134.68;41.53;;;3.80;99.90;;;;;;5087737;28;20055;-77
2022/01/12 02:57:20;;;;;;;114.75;37.97;;;3.90;99.90;;;;;;5069036;28;20044;-78
2022/01/12 03:02:28;;;;;;;119.07;41.85;;;3.90;99.90;;;;;;5086369;28;20058;-79
2022/01/12 03:05:15;;;;;;;153.88;44.47;;;4.00;99.90;;;;;;5087625;28;20533;-80
2022/01/12 03:07:40;;;;;;;111.72;37.58;;;4.00;99.90;;;;;;5087754;28;20044;-78
2022/01/12 03:10:08;;;;;;;117.40;38.58;;;3.90;99.90;;;;;;5069114;28;20044;-79
2022/01/12 03:12:41;;;;;;;117.13;43.13;;;4.00;99.90;;;;;;5086823;28;20482;-79
2022/01/12 03:15:07;;;;;;;101.88;35.97;;;4.00;99.90;;;;;;5087142;28;20089;-79
2022/01/12 03:17:34;;;;;;;97.00;36.53;;;4.00;99.90;;;;;;5068167;28;20603;-79
2022/01/12 03:20:00;;;;;;;92.22;34.45;;;4.00;99.90;;;;;;5087211;28;20044;-78
2022/01/12 03:22:26;;;;;;;55.80;20.88;;;4.10;99.90;;;;;;5089924;28;20076;-78
2022/01/12 03:24:51;;;;;;;62.45;25.83;;;4.10;99.90;;;;;;5091134;28;20032;-78
2022/01/12 03:27:17;;;;;;;86.07;29.05;;;4.10;99.90;;;;;;5091000;28;20040;-78
2022/01/12 03:29:47;;;;;;;68.70;28.35;;;3.90;99.90;;;;;;5090892;28;20082;-77
2022/01/12 03:32:13;;;;;;;58.75;27.25;;;3.80;99.90;;;;;;5090113;28;20048;-77
2022/01/12 03:34:42;;;;;;;92.15;28.75;;;3.60;99.90;;;;;;5090936;28;20089;-77
2022/01/12 03:39:52;;;;;;;62.25;26.92;;;3.40;99.90;;;;;;5072250;28;20059;-78
2022/01/12 03:42:19;;;;;;;82.57;28.70;;;3.30;99.90;;;;;;5090322;28;20066;-78
2022/01/12 03:44:45;;;;;;;60.05;26.48;;;3.20;99.90;;;;;;5090413;28;20410;-76
2022/01/12 03:47:11;;;;;;;51.97;24.17;;;3.20;99.90;;;;;;5090085;28;20040;-77
2022/01/12 03:49:36;;;;;;;54.78;24.30;;;3.10;99.90;;;;;;5089868;28;20482;-77
2022/01/12 03:52:02;;;;;;;64.45;24.40;;;3.10;99.90;;;;;;5072251;28;20040;-78
2022/01/12 03:54:28;;;;;;;47.72;24.60;;;3.00;99.90;;;;;;5071845;28;20093;-76
2022/01/12 03:56:53;;;;;;;48.53;22.92;;;2.90;99.90;;;;;;5090077;28;20036;-78
2022/01/12 03:59:19;;;;;;;42.88;21.10;;;3.00;99.90;;;;;;5090029;28;20505;-78
2022/01/12 04:01:45;;;;;;;71.07;22.90;;;2.90;99.90;;;;;;5089313;28;20435;-78
2022/01/12 04:04:18;;;;;;;63.38;20.35;;;2.90;99.90;;;;;;5090531;28;20048;-78
2022/01/12 04:09:27;;;;;;;201.98;27.10;;;2.60;99.90;;;;;;5071482;28;20453;-78
2022/01/12 04:11:53;;;;;;;379.02;39.17;;;2.60;99.90;;;;;;5089901;28;20040;-78
2022/01/12 04:14:18;;;;;;;367.02;34.78;;;2.60;99.90;;;;;;5089678;28;20080;-77
2022/01/12 04:16:45;;;;;;;521.17;40.42;;;2.50;99.90;;;;;;5089035;28;20079;-78
2022/01/12 04:19:11;;;;;;;443.13;45.22;;;2.40;99.90;;;;;;5090238;28;20053;-79
2022/01/12 04:21:42;;;;;;;332.15;33.25;;;2.50;99.90;;;;;;5089554;28;20048;-79
2022/01/12 04:24:08;;;;;;;410.65;38.28;;;2.50;99.90;;;;;;5090149;28;20051;-79
2022/01/12 04:26:34;;;;;;;340.73;33.50;;;2.50;99.90;;;;;;5071444;28;20522;-78
2022/01/12 04:29:00;;;;;;;239.57;23.65;;;2.40;99.90;;;;;;5071622;28;20047;-78
2022/01/12 04:31:26;;;;;;;311.15;32.20;;;2.40;99.90;;;;;;5088469;28;20205;-79
2022/01/12 04:33:51;;;;;;;330.83;25.77;;;2.40;99.90;;;;;;5089666;28;20044;-78
2022/01/12 04:36:18;;;;;;;266.25;25.85;;;2.30;99.90;;;;;;5089400;28;20037;-77
2022/01/12 04:38:46;;;;;;;120.47;17.35;;;2.20;99.90;;;;;;5089323;28;20170;-78
2022/01/12 04:41:12;;;;;;;271.60;25.75;;;2.10;99.90;;;;;;5089848;28;20047;-78
2022/01/12 04:43:41;;;;;;;127.57;17.05;;;2.20;99.90;;;;;;5070769;28;20048;-78
2022/01/12 04:48:51;;;;;;;309.65;27.25;;;2.10;99.90;;;;;;5088901;28;20185;-79
2022/01/12 04:51:18;;;;;;;337.25;30.10;;;2.00;99.90;;;;;;5070730;28;20052;-79
2022/01/12 04:53:44;;;;;;;503.25;43.85;;;2.00;99.90;;;;;;5089129;28;20540;-78
2022/01/12 04:56:10;;;;;;;402.48;36.50;;;2.10;99.90;;;;;;5089318;28;20043;-78
2022/01/12 04:58:35;;;;;;;557.25;48.17;;;2.20;99.90;;;;;;5088632;28;20047;-79
2022/01/12 05:01:08;;;;;;;351.10;30.25;;;2.10;99.90;;;;;;5088119;28;20032;-78
2022/01/12 05:13:59;;;;;;;313.60;25.98;;;1.90;99.90;;;;;;5089129;28;20052;-78
2022/01/12 05:16:25;;;;;;;269.27;27.27;;;1.80;99.90;;;;;;5087457;28;20040;-79
2022/01/12 05:18:54;;;;;;;232.75;24.67;;;1.80;99.90;;;;;;5088911;28;20079;-78
2022/01/12 05:21:21;;;;;;;172.77;19.23;;;1.70;99.90;;;;;;5088351;28;20093;-78
2022/01/12 05:23:47;;;;;;;238.15;25.02;;;1.70;99.90;;;;;;5070910;28;20391;-78
2022/01/12 05:26:13;;;;;;;270.25;25.55;;;1.80;99.90;;;;;;5088909;28;20599;-78
2022/01/12 05:28:39;;;;;;;175.27;21.80;;;1.80;99.90;;;;;;5088741;28;20044;-78
2022/01/12 05:31:09;;;;;;;174.05;18.33;;;1.70;99.90;;;;;;5087605;28;20189;-79
2022/01/12 05:33:36;;;;;;;311.95;26.25;;;1.60;99.90;;;;;;5088184;28;20036;-79
2022/01/12 05:36:05;;;;;;;459.52;35.95;;;1.60;99.90;;;;;;5088531;28;20040;-78
2022/01/12 05:38:32;;;;;;;481.77;37.20;;;1.60;99.90;;;;;;5088228;28;20039;-77
2022/01/12 05:41:05;;;;;;;329.42;26.35;;;1.50;99.90;;;;;;5088303;28;20040;-78
2022/01/12 05:43:33;;;;;;;214.77;20.35;;;1.60;99.90;;;;;;5069160;28;20044;-76
2022/01/12 05:46:08;;;;;;;294.42;26.63;;;1.60;99.90;;;;;;5087195;28;20052;-78
2022/01/12 05:51:18;;;;;;;135.63;15.85;;;1.60;99.90;;;;;;5088338;28;20441;-77
2022/01/12 05:53:44;;;;;;;175.20;16.73;;;1.60;99.90;;;;;;5088283;28;20047;-78
2022/01/12 05:56:10;;;;;;;150.13;18.17;;;1.60;99.90;;;;;;5088379;28;20051;-79
2022/01/12 05:58:35;;;;;;;183.10;19.85;;;1.50;99.90;;;;;;5087654;28;20044;-77
2022/01/12 06:01:01;;;;;;;175.55;19.67;;;1.50;99.90;;;;;;5068602;28;20040;-78
2022/01/12 06:03:26;;;;;;;173.00;16.88;;;1.40;99.90;;;;;;5087704;28;20119;-77
2022/01/12 06:05:52;;;;;;;239.57;20.20;;;1.40;99.90;;;;;;5087937;28;20409;-77
2022/01/12 06:08:18;;;;;;;142.30;14.90;;;1.40;99.90;;;;;;5087789;28;20048;-77
2022/01/12 06:10:44;;;;;;;198.70;16.50;;;1.40;99.90;;;;;;5087916;28;20036;-75
2022/01/12 06:13:09;;;;;;;175.00;15.25;;;1.40;99.90;;;;;;5070020;28;20039;-77
2022/01/12 06:15:35;;;;;;;223.02;17.67;;;1.50;99.90;;;;;;5086794;28;20497;-77
2022/01/12 06:18:00;;;;;;;180.70;17.27;;;1.40;99.90;;;;;;5087764;28;20492;-77
2022/01/12 06:20:26;;;;;;;185.23;17.92;;;1.50;99.90;;;;;;5087229;28;20043;-77
2022/01/12 06:22:52;;;;;;;262.80;25.20;;;1.50;99.90;;;;;;5069274;28;20086;-77
2022/01/12 06:25:17;;;;;;;161.25;14.32;;;1.40;99.90;;;;;;5087385;28;20043;-78
2022/01/12 06:27:56;;;;;;;67.68;10.68;;;1.50;99.90;;;;;;5053098;28;20071;-78
2022/01/12 06:32:53;;;;;;;121.25;12.13;;;1.50;99.90;;;;;;5087301;28;20040;-78
2022/01/12 06:35:19;;;;;;;85.68;10.38;;;1.50;99.90;;;;;;5087094;28;20048;-77
2022/01/12 06:37:44;;;;;;;141.70;16.08;;;1.60;99.90;;;;;;5087544;28;20423;-77
2022/01/12 06:40:12;;;;;;;156.18;13.63;;;1.50;99.90;;;;;;5069915;28;20075;-79
2022/01/12 06:42:38;;;;;;;109.20;12.35;;;1.50;99.90;;;;;;5087190;28;20036;-77
2022/01/12 06:45:04;;;;;;;77.95;9.63;;;1.60;99.90;;;;;;5087174;28;20106;-77
2022/01/12 06:47:29;;;;;;;98.13;12.90;;;1.50;99.90;;;;;;5086133;28;20455;-77
2022/01/12 06:49:55;;;;;;;122.15;11.98;;;1.50;99.90;;;;;;5086859;28;20130;-77
2022/01/12 06:52:20;;;;;;;185.13;16.70;;;1.50;99.90;;;;;;5068933;28;20071;-77
2022/01/12 06:54:46;;;;;;;122.50;13.25;;;1.50;99.90;;;;;;5069243;28;20039;-77
2022/01/12 06:57:12;;;;;;;102.15;10.70;;;1.50;99.90;;;;;;5090897;28;20064;-77
2022/01/12 06:59:37;;;;;;;138.90;13.73;;;1.50;99.90;;;;;;5091257;28;20044;-77
2022/01/12 07:02:04;;;;;;;181.70;14.73;;;1.40;99.90;;;;;;5072274;28;20071;-78
2022/01/12 07:04:30;;;;;;;177.50;14.50;;;1.30;99.90;;;;;;5091190;28;20391;-78
2022/01/12 07:06:55;;;;;;;217.65;17.42;;;1.30;99.90;;;;;;5091192;28;20047;-78
2022/01/12 07:09:21;;;;;;;218.57;15.68;;;1.30;99.90;;;;;;5091083;28;20044;-78
2022/01/12 07:11:48;;;;;;;223.10;18.40;;;1.30;99.90;;;;;;5073336;28;20075;-78
2022/01/12 07:14:13;;;;;;;151.40;15.75;;;1.30;99.90;;;;;;5090852;28;20048;-72
2022/01/12 07:16:39;;;;;;;234.48;19.55;;;1.30;99.90;;;;;;5090351;28;20124;-78
2022/01/12 07:19:05;;;;;;;222.55;21.20;;;1.20;99.90;;;;;;5091296;28;20067;-78
2022/01/12 07:21:30;;;;;;;323.17;25.42;;;1.30;99.90;;;;;;5072548;28;20146;-77
2022/01/12 07:23:57;;;;;;;335.58;25.23;;;1.30;99.90;;;;;;5091033;28;20123;-78
2022/01/12 07:26:23;;;;;;;456.20;34.22;;;1.30;99.90;;;;;;5055732;28;20044;-77
2022/01/12 07:28:49;;;;;;;422.63;31.05;;;1.30;99.90;;;;;;5072649;28;20069;-78
2022/01/12 07:31:15;;;;;;;366.30;31.95;;;1.30;99.90;;;;;;5071366;28;20044;-78
2022/01/12 07:33:41;;;;;;;331.42;26.02;;;1.40;99.90;;;;;;5090945;28;20092;-78
2022/01/12 07:36:06;;;;;;;262.55;24.80;;;1.40;99.90;;;;;;5090583;28;20039;-77
2022/01/12 07:38:32;;;;;;;376.98;29.92;;;1.40;99.90;;;;;;5090405;28;20044;-77
2022/01/12 07:40:58;;;;;;;362.70;28.42;;;1.50;99.90;;;;;;5072476;28;20054;-77
2022/01/12 07:43:23;;;;;;;282.45;26.10;;;1.50;99.90;;;;;;5090109;28;20079;-78
2022/01/12 07:45:49;;;;;;;301.05;25.63;;;1.30;99.90;;;;;;5089434;28;20140;-78
2022/01/12 07:48:15;;;;;;;269.90;22.75;;;1.50;99.90;;;;;;5090016;28;20039;-78
2022/01/12 07:50:41;;;;;;;202.20;20.60;;;1.50;99.90;;;;;;5090631;28;20084;-77
2022/01/12 07:53:07;;;;;;;191.52;16.25;;;1.60;99.90;;;;;;5090497;28;20040;-78
2022/01/12 07:55:33;;;;;;;213.48;18.60;;;1.60;99.90;;;;;;5071872;28;20150;-79
2022/01/12 07:57:58;;;;;;;265.52;23.88;;;1.60;99.90;;;;;;5072050;28;20044;-78
2022/01/12 08:00:24;;;;;;;290.80;27.15;;;1.70;99.90;;;;;;5070767;28;20489;-78
2022/01/12 08:02:50;;;;;;;225.27;19.15;;;1.70;99.90;;;;;;5090070;28;20089;-78
2022/01/12 08:05:17;;;;;;;329.95;26.13;;;1.70;99.90;;;;;;5071656;28;20059;-78
2022/01/12 08:07:43;;;;;;;283.48;22.20;;;1.80;99.90;;;;;;5089853;28;20464;-77
2022/01/12 08:10:09;;;;;;;191.05;18.35;;;1.70;99.90;;;;;;5090175;28;20071;-78
2022/01/12 08:12:37;;;;;;;257.92;19.83;;;1.70;99.90;;;;;;5089748;28;20481;-78
2022/01/12 08:15:07;;;;;;;260.90;20.52;;;1.70;99.90;;;;;;5070980;28;20494;-77
2022/01/12 08:17:34;;;;;;;192.63;15.68;;;1.70;99.90;;;;;;5089654;28;20052;-77
2022/01/12 08:20:01;;;;;;;214.82;17.95;;;1.80;99.90;;;;;;5071417;28;20040;-77
2022/01/12 08:22:27;;;;;;;133.43;13.20;;;1.70;99.90;;;;;;5089540;28;20034;-77
2022/01/12 08:24:52;;;;;;;168.85;14.40;;;1.70;99.90;;;;;;5089812;28;20067;-78
2022/01/12 08:27:18;;;;;;;127.82;14.18;;;1.70;99.90;;;;;;5089348;28;20067;-78
2022/01/12 08:29:44;;;;;;;158.23;14.02;;;1.70;99.90;;;;;;5089290;28;20040;-74
2022/01/12 08:32:09;;;;;;;139.23;12.02;;;1.70;99.90;;;;;;5089046;28;20036;-78
2022/01/12 08:34:35;;;;;;;167.07;13.73;;;1.80;99.90;;;;;;5089067;28;20127;-78
2022/01/12 08:37:01;;;;;;;110.78;12.45;;;1.80;99.90;;;;;;5089209;28;20040;-78
2022/01/12 08:39:26;;;;;;;124.75;11.50;;;1.80;99.90;;;;;;5071022;28;20142;-77
2022/01/12 08:41:52;;;;;;;209.73;18.70;;;1.80;99.90;;;;;;5071131;28;20051;-78
2022/01/12 08:44:17;;;;;;;125.88;13.02;;;2.00;99.90;;;;;;5070983;28;20120;-78
2022/01/12 08:46:43;;;;;;;68.68;10.90;;;2.00;99.90;;;;;;5088598;28;20544;-78
2022/01/12 08:49:09;;;;;;;126.40;13.13;;;1.90;99.90;;;;;;5089581;28;20044;-80
2022/01/12 08:51:36;;;;;;;138.38;15.07;;;2.00;99.90;;;;;;5088905;28;20036;-77
2022/01/12 08:54:03;;;;;;;156.15;14.63;;;2.10;99.90;;;;;;5089030;28;20044;-78
2022/01/12 08:56:28;;;;;;;214.25;19.40;;;2.10;99.90;;;;;;5070710;28;20144;-78
2022/01/12 08:58:54;;;;;;;199.57;16.08;;;2.10;99.90;;;;;;5070901;28;20395;-78
2022/01/12 09:01:20;;;;;;;167.80;12.30;;;2.30;99.90;;;;;;5069632;28;20076;-79
2022/01/12 09:03:46;;;;;;;255.60;21.30;;;2.40;99.90;;;;;;5089576;28;20062;-78
2022/01/12 09:06:13;;;;;;;207.63;15.48;;;2.40;99.90;;;;;;5054761;28;20062;-78
2022/01/12 09:08:41;;;;;;;191.52;16.52;;;2.40;99.90;;;;;;5071414;28;20044;-78
2022/01/12 09:11:07;;;;;;;113.28;11.80;;;2.50;99.90;;;;;;5089169;28;20063;-77
2022/01/12 09:13:34;;;;;;;127.05;12.75;;;2.50;99.90;;;;;;5070618;28;21101;-79
2022/01/12 09:16:06;;;;;;;227.23;16.73;;;2.60;99.90;;;;;;5088219;28;20048;-77
2022/01/12 09:18:34;;;;;;;160.02;13.88;;;2.60;99.90;;;;;;5087730;28;20115;-79
2022/01/12 09:21:00;;;;;;;156.73;12.98;;;2.80;99.90;;;;;;5088777;28;20116;-78
2022/01/12 09:23:26;;;;;;;284.33;19.05;;;2.80;99.90;;;;;;5088316;28;20460;-79
2022/01/12 09:25:51;;;;;;;251.40;17.60;;;2.80;99.90;;;;;;5088517;28;20441;-79
2022/01/12 09:28:17;;;;;;;236.57;16.80;;;2.90;99.90;;;;;;5069724;28;20064;-78
2022/01/12 09:30:43;;;;;;;159.13;13.90;;;2.90;99.90;;;;;;5069603;28;20040;-79
2022/01/12 09:33:08;;;;;;;252.32;19.58;;;3.00;99.90;;;;;;5088805;28;20039;-78
2022/01/12 09:35:34;;;;;;;116.43;11.65;;;3.10;99.90;;;;;;5088804;28;20076;-79
2022/01/12 09:38:00;;;;;;;201.00;16.85;;;3.20;99.90;;;;;;5088469;28;20375;-79
2022/01/12 09:40:25;;;;;;;164.18;14.35;;;3.20;99.90;;;;;;5069770;28;20533;-78
2022/01/12 09:42:53;;;;;;;169.13;15.00;;;3.30;99.90;;;;;;5088008;28;20043;-78
2022/01/12 09:45:19;;;;;;;162.88;14.68;;;3.40;99.90;;;;;;5086735;28;20116;-79
2022/01/12 09:47:47;;;;;;;218.63;17.50;;;3.40;99.90;;;;;;5088227;28;20379;-78
2022/01/12 09:50:16;;;;;;;266.35;18.55;;;3.50;99.90;;;;;;5088291;28;20071;-79
2022/01/12 09:52:42;;;;;;;221.15;17.55;;;3.50;99.90;;;;;;5088288;28;20040;-78
2022/01/12 09:55:08;;;;;;;406.95;26.65;;;3.60;99.90;;;;;;5087684;28;20547;-78
2022/01/12 09:57:34;;;;;;;260.63;17.20;;;3.60;99.90;;;;;;5087900;28;20048;-79
2022/01/12 10:00:00;;;;;;;310.38;22.45;;;3.70;99.90;;;;;;5086792;28;20469;-78
2022/01/12 10:02:25;;;;;;;284.92;19.65;;;3.60;99.90;;;;;;5087594;28;20040;-79
2022/01/12 10:05:06;;;;;;;185.65;14.57;;;3.80;99.90;;;;;;5069737;28;20048;-79
2022/01/12 10:07:32;;;;;;;187.43;16.33;;;3.80;99.90;;;;;;5087764;28;20043;-78
2022/01/12 10:10:08;;;;;;;386.73;22.83;;;3.80;99.90;;;;;;5069469;28;20043;-78
2022/01/12 10:12:34;;;;;;;245.32;16.60;;;3.90;99.90;;;;;;5087377;28;20079;-79
2022/01/12 10:15:13;;;;;;;319.80;22.80;;;3.80;99.90;;;;;;5087006;28;20173;-78
2022/01/12 10:17:47;;;;;;;264.05;19.15;;;3.90;99.90;;;;;;5087890;28;20055;-78
2022/01/12 10:20:21;;;;;;;221.40;14.90;;;3.70;99.90;;;;;;5087656;28;20036;-78
2022/01/12 10:23:05;;;;;;;184.18;16.13;;;3.90;99.90;;;;;;5069476;28;20172;-77
2022/01/12 10:25:31;;;;;;;316.08;23.73;;;3.90;99.90;;;;;;5087129;28;20048;-78
2022/01/12 10:27:58;;;;;;;184.43;15.15;;;4.10;99.90;;;;;;5087692;28;20474;-78
2022/01/12 10:30:29;;;;;;;399.75;25.63;;;4.10;99.90;;;;;;5085825;28;20040;-79
2022/01/12 10:33:07;;;;;;;366.92;23.80;;;4.00;99.90;;;;;;5087594;28;20040;-80
2022/01/12 10:35:35;;;;;;;240.38;17.23;;;4.10;99.90;;;;;;5087147;28;20104;-78
2022/01/12 10:38:10;;;;;;;260.67;16.98;;;4.10;99.90;;;;;;5087291;28;20502;-78
2022/01/12 10:40:45;;;;;;;124.40;12.60;;;4.10;99.90;;;;;;5087016;28;20456;-79
2022/01/12 10:43:25;;;;;;;195.13;15.25;;;4.20;99.90;;;;;;5088113;28;20043;-79
2022/01/12 10:45:51;;;;;;;199.68;14.93;;;4.20;99.90;;;;;;5066077;28;20036;-79
2022/01/12 10:48:16;;;;;;;179.25;13.90;;;4.20;99.90;;;;;;5066734;28;20140;-78
2022/01/12 10:50:56;;;;;;;150.48;15.35;;;4.20;99.90;;;;;;5067195;28;20041;-79
2022/01/12 10:53:31;;;;;;;92.22;10.27;;;4.30;99.90;;;;;;5048803;28;20132;-78
2022/01/12 10:56:08;;;;;;;99.10;11.00;;;4.30;99.90;;;;;;5066881;28;20452;-78
2022/01/12 10:58:36;;;;;;;117.97;9.48;;;4.30;99.90;;;;;;5066426;28;20525;-79
2022/01/12 11:01:02;;;;;;;100.13;10.38;;;4.40;99.90;;;;;;5065898;28;20573;-78
2022/01/12 11:03:29;;;;;;;111.85;12.60;;;4.30;99.90;;;;;;5066891;28;20095;-78
2022/01/12 11:05:55;;;;;;;71.47;10.00;;;4.40;99.90;;;;;;5067011;28;20055;-78
2022/01/12 11:08:24;;;;;;;150.45;13.77;;;4.40;99.90;;;;;;5066554;28;20089;-78
2022/01/12 11:10:50;;;;;;;53.88;9.52;;;4.60;99.90;;;;;;5048783;28;20044;-79
2022/01/12 11:13:16;;;;;;;70.57;11.63;;;4.60;99.90;;;;;;5066636;28;20049;-79
2022/01/12 11:15:42;;;;;;;81.63;9.25;;;4.60;99.90;;;;;;5065979;28;20052;-79
2022/01/12 11:18:09;;;;;;;105.82;11.98;;;4.60;99.90;;;;;;5066787;28;20048;-78
2022/01/12 11:20:36;;;;;;;66.00;9.68;;;4.60;99.90;;;;;;5048147;28;20148;-78
2022/01/12 11:23:07;;;;;;;69.63;9.65;;;4.50;99.90;;;;;;5066792;28;20117;-79
2022/01/12 11:25:33;;;;;;;56.72;10.98;;;4.60;99.90;;;;;;5048375;28;20185;-78
2022/01/12 11:28:21;;;;;;;68.47;9.65;;;4.60;99.90;;;;;;5066700;28;20127;-78
2022/01/12 11:30:56;;;;;;;96.13;10.60;;;4.60;99.90;;;;;;5065639;28;20068;-79
2022/01/12 11:33:35;;;;;;;98.72;11.43;;;4.60;99.90;;;;;;5066599;28;20036;-78
2022/01/12 11:36:11;;;;;;;52.10;9.13;;;4.70;99.90;;;;;;5066751;28;20040;-78
2022/01/12 11:38:38;;;;;;;62.60;8.82;;;4.70;99.90;;;;;;5066514;28;20045;-78
2022/01/12 11:41:23;;;;;;;58.28;12.07;;;4.80;99.90;;;;;;5066556;28;20044;-78
2022/01/12 11:43:52;;;;;;;50.65;12.77;;;4.70;99.90;;;;;;5073589;28;20572;-79
2022/01/12 11:46:21;;;;;;;36.85;9.90;;;4.80;99.90;;;;;;5089546;28;20103;-78
2022/01/12 11:48:46;;;;;;;35.38;11.48;;;4.60;99.90;;;;;;5072335;28;20044;-79
2022/01/12 11:51:15;;;;;;;34.20;9.55;;;4.70;99.90;;;;;;5072276;28;20489;-79
2022/01/12 11:53:49;;;;;;;29.33;9.48;;;4.70;99.90;;;;;;5090619;28;20095;-79
2022/01/12 11:56:26;;;;;;;30.02;10.30;;;4.80;99.90;;;;;;5090173;28;20078;-78
2022/01/12 11:59:12;;;;;;;20.58;9.68;;;4.80;99.90;;;;;;5090403;28;20040;-79
2022/01/12 12:01:48;;;;;;;35.30;11.40;;;4.80;99.90;;;;;;5088822;28;20047;-78
2022/01/12 12:04:31;;;;;;;29.20;10.35;;;4.90;99.90;;;;;;5089645;28;20046;-78
2022/01/12 12:07:14;;;;;;;58.92;10.52;;;5.00;99.90;;;;;;5090608;28;20044;-79
2022/01/12 12:09:48;;;;;;;28.85;11.43;;;5.10;99.90;;;;;;5090737;28;20040;-78
2022/01/12 12:12:20;;;;;;;29.02;11.25;;;5.10;99.90;;;;;;5089742;28;20071;-78
2022/01/12 12:14:48;;;;;;;28.83;11.10;;;5.10;99.90;;;;;;5088986;28;20139;-79
2022/01/12 12:17:16;;;;;;;19.85;9.70;;;5.10;99.90;;;;;;5071693;28;20185;-78
2022/01/12 12:19:41;;;;;;;23.23;9.07;;;5.20;99.90;;;;;;5090110;28;20176;-78
2022/01/12 12:22:41;;;;;;;24.02;9.88;;;5.20;99.90;;;;;;5071953;28;20048;-80
2022/01/12 12:25:12;;;;;;;31.83;11.60;;;5.20;99.90;;;;;;5071922;28;20059;-78
2022/01/12 12:27:40;;;;;;;22.98;9.95;;;5.30;99.90;;;;;;5089643;28;20715;-79
2022/01/12 12:30:09;;;;;;;27.70;10.23;;;5.20;99.90;;;;;;5070540;28;20051;-78
2022/01/12 12:32:45;;;;;;;27.92;9.82;;;5.30;99.90;;;;;;5089216;28;20047;-79
2022/01/12 12:35:22;;;;;;;35.65;12.60;;;5.30;99.90;;;;;;5089830;28;20039;-79
2022/01/12 12:37:53;;;;;;;33.75;12.05;;;5.40;99.90;;;;;;5089458;28;20125;-80
2022/01/12 12:40:29;;;;;;;36.90;12.13;;;5.30;99.90;;;;;;5089263;28;20051;-79
2022/01/12 12:43:27;;;;;;;48.20;18.08;;;5.40;99.90;;;;;;5089586;28;20047;-79
2022/01/12 12:45:54;;;;;;;108.05;47.83;;;5.40;99.90;;;;;;5068128;28;20148;-79
2022/01/12 12:48:32;;;;;;;36.28;18.95;;;5.40;99.90;;;;;;5069074;28;20063;-80
2022/01/12 12:51:00;;;;;;;29.40;15.00;;;5.40;99.90;;;;;;5068938;28;20052;-79
2022/01/12 12:53:30;;;;;;;25.70;13.05;;;5.30;99.90;;;;;;5068584;28;20045;-78
2022/01/12 12:55:56;;;;;;;31.98;11.57;;;5.30;99.90;;;;;;5068783;28;20052;-79
2022/01/12 12:58:26;;;;;;;27.60;12.73;;;5.30;99.90;;;;;;5068425;28;20212;-79
2022/01/12 13:00:51;;;;;;;27.17;10.57;;;5.20;99.90;;;;;;5067980;28;20107;-80
2022/01/12 13:03:17;;;;;;;24.13;11.45;;;5.20;99.90;;;;;;5068439;28;20847;-79
2022/01/12 13:05:43;;;;;;;41.17;11.27;;;5.30;99.90;;;;;;5068695;28;20040;-79
2022/01/12 13:08:10;;;;;;;61.83;11.25;;;5.20;99.90;;;;;;5050960;28;20049;-78
2022/01/12 13:10:36;;;;;;;35.03;12.93;;;5.20;99.90;;;;;;5068222;28;20170;-79
2022/01/12 13:13:08;;;;;;;57.22;11.90;;;5.40;99.90;;;;;;5068474;28;20039;-78
2022/01/12 13:15:36;;;;;;;53.30;12.60;;;5.30;99.90;;;;;;5067185;28;20491;-79
2022/01/12 13:18:11;;;;;;;38.47;13.32;;;5.30;99.90;;;;;;5068654;28;20279;-79
2022/01/12 13:23:37;;;;;;;32.80;12.10;;;5.40;99.90;;;;;;5049931;28;20057;-78
2022/01/12 13:26:07;;;;;;;32.75;12.77;;;5.30;99.90;;;;;;5068310;28;20033;-80
2022/01/12 13:28:35;;;;;;;38.22;11.98;;;5.30;99.90;;;;;;5068047;28;20285;-80
2022/01/12 13:31:04;;;;;;;23.98;12.90;;;5.30;99.90;;;;;;5049263;28;20148;-80
2022/01/12 13:33:36;;;;;;;27.40;11.82;;;5.30;99.90;;;;;;5068178;28;20029;-79
2022/01/12 13:36:17;;;;;;;34.88;14.57;;;5.40;99.90;;;;;;5068295;28;20144;-79
2022/01/12 13:38:48;;;;;;;26.10;11.25;;;5.40;99.90;;;;;;5068726;28;20048;-79
2022/01/12 13:41:22;;;;;;;45.97;13.38;;;5.40;99.90;;;;;;5067979;28;20494;-73
2022/01/12 13:43:57;;;;;;;30.00;11.00;;;5.30;99.90;;;;;;5071937;28;20064;-79
2022/01/12 13:46:34;;;;;;;26.13;10.40;;;5.30;99.90;;;;;;5069759;28;20104;-78
2022/01/12 13:49:23;;;;;;;24.08;10.73;;;5.30;99.90;;;;;;5088472;28;20050;-79
2022/01/12 13:51:55;;;;;;;32.03;11.90;;;5.30;99.90;;;;;;5088215;28;20444;-80
2022/01/12 13:54:21;;;;;;;36.83;11.15;;;5.30;99.90;;;;;;5088311;28;20040;-81
2022/01/12 13:56:51;;;;;;;44.28;12.20;;;5.30;99.90;;;;;;5088356;28;20036;-80
2022/01/12 13:59:18;;;;;;;34.80;11.55;;;5.30;99.90;;;;;;5068846;28;20054;-80
2022/01/12 14:01:45;;;;;;;39.90;10.80;;;5.30;99.90;;;;;;5088198;28;20048;-76